Etusivu
METAR-TAF:

METAR-TAF

Lentoasemat :

Talkeetna, Alaska, Yhdysvallat

Leveyspiiri: 62-19-14N, Pituuspiiri: 150-05-37W, korkeus merenpinnasta: 109 m

Tämänhetkinen sää

Tämä raportti tehtiin 43 minuuttia sitten, kello 15.53 UTC
tyyntä
Lämpötila 11°C
Kosteus 82%
Ilmanpaine 1027 hPa
Näkyvyys: 16.1 km
selkeää

METAR: PATK 201553Z AUTO 00000KT 10SM CLR 11/08 A3034 RMK AO2 SLP275 T01060083 TSNO $

Aika: 08:36 (16:36 UTC)

Sääennuste

Tämä raportti tehtiin 5 tuntia ja 0 minuuttia sitten, kello 11.36 UTC
Ennuste voimassa 20. päivästä klo 12 UTC - 21. päivään klo 12 UTC
Tuuli 6 kn etelästä/lounaasta
Näkyvyys: 10 km
selkeää

TAF: PATK 201136Z 2012/2112 20006KT P6SM SKC

Säähavainnot ja -ennusteet yli 4000 lentoasemalta (METAR- ja TAF-raportit).

Käytössä olevat sääasemat on merkitty karttaan keltaisilla ja punaisilla pisteillä.

Aseta hiiri pisteen päälle nähdäksesi sääaseman nimen.

Klikkaa sitten nähdäksesi säähavainnot ja -ennusteet.

Kartan vaihtaminen: klikkaa mustalla rastilla varustettuja vihreitä pisteitä, niin voit zoomata sisään; viivalla varustettua vihreää pistettä, niin voit zoomata ulos tai vihreitä nuolia, niin pääset viereisille kartoille.


METAR-TAF: